sensor_id;sensor_type;location;lat;lon;timestamp;pressure;altitude;pressure_sealevel;temperature;humidity
61645;BME280;47553;52.428;13.382;2022-07-23T00:00:38;101176.22;;;17.61;84.39
61645;BME280;47553;52.428;13.382;2022-07-23T00:02:40;101179.72;;;17.51;84.47
61645;BME280;47553;52.428;13.382;2022-07-23T00:04:42;101168.09;;;17.50;84.62
61645;BME280;47553;52.428;13.382;2022-07-23T00:06:43;101169.31;;;17.46;84.87
61645;BME280;47553;52.428;13.382;2022-07-23T00:08:45;101158.75;;;17.54;84.45
61645;BME280;47553;52.428;13.382;2022-07-23T00:10:48;101163.66;;;17.49;84.24
61645;BME280;47553;52.428;13.382;2022-07-23T00:12:50;101165.88;;;17.44;84.36
61645;BME280;47553;52.428;13.382;2022-07-23T00:14:52;101164.03;;;17.45;84.21
61645;BME280;47553;52.428;13.382;2022-07-23T00:16:54;101168.44;;;17.34;84.13
61645;BME280;47553;52.428;13.382;2022-07-23T00:18:56;101172.63;;;17.38;83.80
61645;BME280;47553;52.428;13.382;2022-07-23T00:20:58;101173.00;;;17.45;83.09
61645;BME280;47553;52.428;13.382;2022-07-23T00:22:59;101169.31;;;17.35;83.47
61645;BME280;47553;52.428;13.382;2022-07-23T00:25:01;101165.50;;;17.37;83.42
61645;BME280;47553;52.428;13.382;2022-07-23T00:27:25;101156.81;;;17.34;83.43
61645;BME280;47553;52.428;13.382;2022-07-23T00:29:26;101153.50;;;17.41;83.06
61645;BME280;47553;52.428;13.382;2022-07-23T00:31:28;101161.09;;;17.36;82.78
61645;BME280;47553;52.428;13.382;2022-07-23T00:33:30;101155.59;;;17.38;82.80
61645;BME280;47553;52.428;13.382;2022-07-23T00:35:33;101158.03;;;17.41;82.33
61645;BME280;47553;52.428;13.382;2022-07-23T00:37:35;101150.56;;;17.56;81.52
61645;BME280;47553;52.428;13.382;2022-07-23T00:39:37;101144.78;;;17.49;82.02
61645;BME280;47553;52.428;13.382;2022-07-23T00:41:38;101153.38;;;17.54;81.84
61645;BME280;47553;52.428;13.382;2022-07-23T00:43:41;101153.97;;;17.58;81.39
61645;BME280;47553;52.428;13.382;2022-07-23T00:45:43;101163.31;;;17.54;81.32
61645;BME280;47553;52.428;13.382;2022-07-23T00:47:45;101160.13;;;17.49;81.67
61645;BME280;47553;52.428;13.382;2022-07-23T00:49:46;101159.00;;;17.51;81.61
61645;BME280;47553;52.428;13.382;2022-07-23T00:51:49;101153.75;;;17.61;80.57
61645;BME280;47553;52.428;13.382;2022-07-23T00:53:50;101141.50;;;17.46;81.21
61645;BME280;47553;52.428;13.382;2022-07-23T00:55:53;101134.75;;;17.40;81.94
61645;BME280;47553;52.428;13.382;2022-07-23T00:57:55;101143.94;;;17.26;82.21
61645;BME280;47553;52.428;13.382;2022-07-23T00:59:58;101143.94;;;17.26;82.54
61645;BME280;47553;52.428;13.382;2022-07-23T01:02:00;101155.72;;;17.36;82.15
61645;BME280;47553;52.428;13.382;2022-07-23T01:04:01;101150.06;;;17.39;82.22
61645;BME280;47553;52.428;13.382;2022-07-23T01:06:03;101149.47;;;17.36;81.72
61645;BME280;47553;52.428;13.382;2022-07-23T01:08:05;101157.91;;;17.42;81.63
61645;BME280;47553;52.428;13.382;2022-07-23T01:10:08;101153.00;;;17.48;81.14
61645;BME280;47553;52.428;13.382;2022-07-23T01:12:13;101158.31;;;17.60;80.93
61645;BME280;47553;52.428;13.382;2022-07-23T01:14:16;101153.53;;;17.64;80.12
61645;BME280;47553;52.428;13.382;2022-07-23T01:16:19;101156.25;;;17.64;79.80
61645;BME280;47553;52.428;13.382;2022-07-23T01:18:20;101160.59;;;17.54;80.15
61645;BME280;47553;52.428;13.382;2022-07-23T01:20:22;101150.56;;;17.56;80.28
61645;BME280;47553;52.428;13.382;2022-07-23T01:22:28;101143.69;;;17.52;80.23
61645;BME280;47553;52.428;13.382;2022-07-23T01:24:30;101150.19;;;17.38;81.01
61645;BME280;47553;52.428;13.382;2022-07-23T01:26:32;101141.84;;;17.41;80.53
61645;BME280;47553;52.428;13.382;2022-07-23T01:28:33;101138.06;;;17.32;80.98
61645;BME280;47553;52.428;13.382;2022-07-23T01:30:35;101134.50;;;17.21;81.10
61645;BME280;47553;52.428;13.382;2022-07-23T01:32:37;101123.38;;;17.14;81.42
61645;BME280;47553;52.428;13.382;2022-07-23T01:34:38;101124.34;;;17.13;81.78
61645;BME280;47553;52.428;13.382;2022-07-23T01:36:40;101119.44;;;17.18;81.56
61645;BME280;47553;52.428;13.382;2022-07-23T01:38:43;101123.13;;;17.06;81.91
61645;BME280;47553;52.428;13.382;2022-07-23T01:40:44;101127.03;;;17.13;81.98
61645;BME280;47553;52.428;13.382;2022-07-23T01:42:49;101128.03;;;17.12;81.92
61645;BME280;47553;52.428;13.382;2022-07-23T01:44:51;101118.84;;;17.15;81.83
61645;BME280;47553;52.428;13.382;2022-07-23T01:46:52;101118.72;;;17.05;82.58
61645;BME280;47553;52.428;13.382;2022-07-23T01:48:54;101125.56;;;16.98;82.36
61645;BME280;47553;52.428;13.382;2022-07-23T01:50:56;101129.22;;;16.97;82.67
61645;BME280;47553;52.428;13.382;2022-07-23T01:52:57;101127.03;;;16.91;83.02
61645;BME280;47553;52.428;13.382;2022-07-23T01:55:00;101124.22;;;16.92;83.23
61645;BME280;47553;52.428;13.382;2022-07-23T01:57:02;101111.22;;;16.86;83.67
61645;BME280;47553;52.428;13.382;2022-07-23T01:59:04;101118.44;;;16.97;82.93
61645;BME280;47553;52.428;13.382;2022-07-23T02:01:05;101109.38;;;16.98;83.18
61645;BME280;47553;52.428;13.382;2022-07-23T02:03:07;101111.84;;;17.01;83.42
61645;BME280;47553;52.428;13.382;2022-07-23T02:05:11;101119.44;;;17.07;82.86
61645;BME280;47553;52.428;13.382;2022-07-23T02:07:12;101116.25;;;17.13;82.60
61645;BME280;47553;52.428;13.382;2022-07-23T02:09:14;101106.69;;;17.09;82.88
61645;BME280;47553;52.428;13.382;2022-07-23T02:11:17;101104.75;;;17.11;82.99
61645;BME280;47553;52.428;13.382;2022-07-23T02:13:19;101115.53;;;17.11;82.98
61645;BME280;47553;52.428;13.382;2022-07-23T02:15:20;101120.19;;;17.09;82.65
61645;BME280;47553;52.428;13.382;2022-07-23T02:17:22;101113.31;;;17.05;83.07
61645;BME280;47553;52.428;13.382;2022-07-23T02:19:23;101114.16;;;17.05;83.49
61645;BME280;47553;52.428;13.382;2022-07-23T02:21:25;101111.22;;;17.08;82.95
61645;BME280;47553;52.428;13.382;2022-07-23T02:23:27;101112.81;;;17.11;83.09
61645;BME280;47553;52.428;13.382;2022-07-23T02:25:29;101118.22;;;17.11;83.11
61645;BME280;47553;52.428;13.382;2022-07-23T02:27:32;101108.91;;;17.15;82.98
61645;BME280;47553;52.428;13.382;2022-07-23T02:29:34;101104.50;;;17.14;82.80
61645;BME280;47553;52.428;13.382;2022-07-23T02:31:35;101105.59;;;17.12;82.42
61645;BME280;47553;52.428;13.382;2022-07-23T02:33:37;101110.13;;;17.22;82.94
61645;BME280;47553;52.428;13.382;2022-07-23T02:35:39;101106.69;;;17.31;82.61
61645;BME280;47553;52.428;13.382;2022-07-23T02:37:40;101110.63;;;17.27;82.08
61645;BME280;47553;52.428;13.382;2022-07-23T02:39:42;101110.84;;;17.35;81.96
61645;BME280;47553;52.428;13.382;2022-07-23T02:41:44;101115.28;;;17.36;81.55
61645;BME280;47553;52.428;13.382;2022-07-23T02:43:47;101113.69;;;17.34;81.68
61645;BME280;47553;52.428;13.382;2022-07-23T02:45:48;101110.00;;;17.35;81.60
61645;BME280;47553;52.428;13.382;2022-07-23T02:47:50;101111.47;;;17.28;81.88
61645;BME280;47553;52.428;13.382;2022-07-23T02:49:51;101114.03;;;17.40;81.85
61645;BME280;47553;52.428;13.382;2022-07-23T02:51:54;101112.56;;;17.36;81.22
61645;BME280;47553;52.428;13.382;2022-07-23T02:53:59;101104.22;;;17.51;80.96
61645;BME280;47553;52.428;13.382;2022-07-23T02:56:03;101112.31;;;17.39;80.58
61645;BME280;47553;52.428;13.382;2022-07-23T02:58:05;101118.22;;;17.33;80.62
61645;BME280;47553;52.428;13.382;2022-07-23T03:00:09;101112.59;;;17.25;80.30
61645;BME280;47553;52.428;13.382;2022-07-23T03:02:11;101113.56;;;17.24;81.13
61645;BME280;47553;52.428;13.382;2022-07-23T03:04:12;101103.88;;;17.22;81.36
61645;BME280;47553;52.428;13.382;2022-07-23T03:06:14;101109.88;;;17.25;80.02
61645;BME280;47553;52.428;13.382;2022-07-23T03:08:16;101107.06;;;17.27;80.76
61645;BME280;47553;52.428;13.382;2022-07-23T03:10:17;101106.56;;;17.33;80.54
61645;BME280;47553;52.428;13.382;2022-07-23T03:12:19;101096.28;;;17.27;80.40
61645;BME280;47553;52.428;13.382;2022-07-23T03:14:20;101115.50;;;17.33;80.06
61645;BME280;47553;52.428;13.382;2022-07-23T03:16:23;101116.75;;;17.29;79.98
61645;BME280;47553;52.428;13.382;2022-07-23T03:18:25;101103.13;;;17.31;80.12
61645;BME280;47553;52.428;13.382;2022-07-23T03:20:26;101091.00;;;17.36;80.19
61645;BME280;47553;52.428;13.382;2022-07-23T03:22:28;101098.34;;;17.34;81.14
61645;BME280;47553;52.428;13.382;2022-07-23T03:24:30;101101.44;;;17.30;80.56
61645;BME280;47553;52.428;13.382;2022-07-23T03:26:31;101101.28;;;17.42;79.75
61645;BME280;47553;52.428;13.382;2022-07-23T03:28:33;101097.38;;;17.47;80.23
61645;BME280;47553;52.428;13.382;2022-07-23T03:30:34;101103.25;;;17.29;79.98
61645;BME280;47553;52.428;13.382;2022-07-23T03:32:37;101112.69;;;17.46;79.74
61645;BME280;47553;52.428;13.382;2022-07-23T03:34:39;101115.00;;;17.51;79.48
61645;BME280;47553;52.428;13.382;2022-07-23T03:36:41;101132.91;;;17.40;79.69
61645;BME280;47553;52.428;13.382;2022-07-23T03:38:44;101138.19;;;17.42;80.15
61645;BME280;47553;52.428;13.382;2022-07-23T03:40:45;101139.16;;;17.30;80.16
61645;BME280;47553;52.428;13.382;2022-07-23T03:42:47;101139.28;;;17.28;80.35
61645;BME280;47553;52.428;13.382;2022-07-23T03:44:49;101138.69;;;17.14;81.35
61645;BME280;47553;52.428;13.382;2022-07-23T03:46:50;101148.34;;;17.16;80.95
61645;BME280;47553;52.428;13.382;2022-07-23T03:48:53;101157.41;;;17.15;81.32
61645;BME280;47553;52.428;13.382;2022-07-23T03:50:59;101166.47;;;17.14;81.61
61645;BME280;47553;52.428;13.382;2022-07-23T03:53:01;101161.84;;;17.16;81.55
61645;BME280;47553;52.428;13.382;2022-07-23T03:55:03;101171.16;;;17.23;80.09
61645;BME280;47553;52.428;13.382;2022-07-23T03:57:05;101166.75;;;17.33;79.43
61645;BME280;47553;52.428;13.382;2022-07-23T03:59:07;101153.00;;;17.25;79.51
61645;BME280;47553;52.428;13.382;2022-07-23T04:01:08;101161.56;;;17.08;79.76
61645;BME280;47553;52.428;13.382;2022-07-23T04:03:10;101178.22;;;17.02;79.80
61645;BME280;47553;52.428;13.382;2022-07-23T04:05:13;101171.91;;;16.79;80.34
61645;BME280;47553;52.428;13.382;2022-07-23T04:07:15;101157.31;;;16.70;81.46
61645;BME280;47553;52.428;13.382;2022-07-23T04:09:17;101136.66;;;16.82;80.94
61645;BME280;47553;52.428;13.382;2022-07-23T04:11:18;101139.44;;;16.69;80.48
61645;BME280;47553;52.428;13.382;2022-07-23T04:13:20;101135.44;;;16.51;81.38
61645;BME280;47553;52.428;13.382;2022-07-23T04:15:21;101141.59;;;16.64;80.64
61645;BME280;47553;52.428;13.382;2022-07-23T04:17:23;101144.03;;;16.56;80.72
61645;BME280;47553;52.428;13.382;2022-07-23T04:19:25;101147.44;;;16.58;80.37
61645;BME280;47553;52.428;13.382;2022-07-23T04:21:28;101145.13;;;16.54;79.68
61645;BME280;47553;52.428;13.382;2022-07-23T04:23:30;101138.00;;;16.53;79.36
61645;BME280;47553;52.428;13.382;2022-07-23T04:25:31;101131.28;;;16.58;80.70
61645;BME280;47553;52.428;13.382;2022-07-23T04:27:33;101122.53;;;16.67;79.69
61645;BME280;47553;52.428;13.382;2022-07-23T04:29:34;101099.84;;;16.94;76.21
61645;BME280;47553;52.428;13.382;2022-07-23T04:31:36;101104.84;;;16.87;76.26
61645;BME280;47553;52.428;13.382;2022-07-23T04:33:38;101155.84;;;16.66;78.00
61645;BME280;47553;52.428;13.382;2022-07-23T04:35:39;101150.50;;;16.54;77.90
61645;BME280;47553;52.428;13.382;2022-07-23T04:37:42;101157.44;;;16.45;78.50
61645;BME280;47553;52.428;13.382;2022-07-23T04:39:44;101178.44;;;16.29;82.95
61645;BME280;47553;52.428;13.382;2022-07-23T04:41:46;101177.63;;;16.15;84.82
61645;BME280;47553;52.428;13.382;2022-07-23T04:43:48;101182.09;;;15.91;85.44
61645;BME280;47553;52.428;13.382;2022-07-23T04:45:49;101191.50;;;15.73;88.64
61645;BME280;47553;52.428;13.382;2022-07-23T04:47:51;101179.03;;;15.72;90.25
61645;BME280;47553;52.428;13.382;2022-07-23T04:49:53;101164.41;;;15.63;89.82
61645;BME280;47553;52.428;13.382;2022-07-23T04:51:54;101175.50;;;15.71;91.18
61645;BME280;47553;52.428;13.382;2022-07-23T04:53:57;101182.91;;;15.68;90.25
61645;BME280;47553;52.428;13.382;2022-07-23T04:55:59;101176.25;;;15.61;89.88
61645;BME280;47553;52.428;13.382;2022-07-23T04:58:01;101158.47;;;16.07;89.03
61645;BME280;47553;52.428;13.382;2022-07-23T05:00:03;101144.50;;;16.02;89.99
61645;BME280;47553;52.428;13.382;2022-07-23T05:02:05;101145.81;;;15.97;90.14
61645;BME280;47553;52.428;13.382;2022-07-23T05:04:06;101163.94;;;15.82;91.48
61645;BME280;47553;52.428;13.382;2022-07-23T05:06:08;101189.47;;;15.64;91.04
61645;BME280;47553;52.428;13.382;2022-07-23T05:08:10;101176.88;;;15.64;90.30
61645;BME280;47553;52.428;13.382;2022-07-23T05:10:13;101152.63;;;15.40;93.14
61645;BME280;47553;52.428;13.382;2022-07-23T05:12:14;101171.66;;;15.37;93.53
61645;BME280;47553;52.428;13.382;2022-07-23T05:14:16;101171.31;;;15.42;92.76
61645;BME280;47553;52.428;13.382;2022-07-23T05:16:17;101168.09;;;15.49;93.44
61645;BME280;47553;52.428;13.382;2022-07-23T05:18:19;101173.88;;;15.69;93.88
61645;BME280;47553;52.428;13.382;2022-07-23T05:20:20;101153.41;;;15.79;93.02
61645;BME280;47553;52.428;13.382;2022-07-23T05:22:22;101144.38;;;15.80;92.26
61645;BME280;47553;52.428;13.382;2022-07-23T05:24:24;101161.72;;;16.12;91.10
61645;BME280;47553;52.428;13.382;2022-07-23T05:26:27;101173.34;;;16.13;88.67
61645;BME280;47553;52.428;13.382;2022-07-23T05:28:28;101162.59;;;16.00;88.86
61645;BME280;47553;52.428;13.382;2022-07-23T05:30:30;101153.66;;;16.00;89.47
61645;BME280;47553;52.428;13.382;2022-07-23T05:32:32;101158.13;;;15.88;91.83
61645;BME280;47553;52.428;13.382;2022-07-23T05:34:33;101161.31;;;15.93;91.65
61645;BME280;47553;52.428;13.382;2022-07-23T05:36:35;101167.78;;;15.91;89.69
61645;BME280;47553;52.428;13.382;2022-07-23T05:38:37;101169.31;;;15.82;89.54
61645;BME280;47553;52.428;13.382;2022-07-23T05:40:38;101173.31;;;15.76;89.77
61645;BME280;47553;52.428;13.382;2022-07-23T05:42:41;101161.94;;;15.73;90.16
61645;BME280;47553;52.428;13.382;2022-07-23T05:44:43;101174.53;;;15.60;91.66
61645;BME280;47553;52.428;13.382;2022-07-23T05:46:44;101185.84;;;15.39;92.64
61645;BME280;47553;52.428;13.382;2022-07-23T05:48:46;101189.47;;;15.51;92.83
61645;BME280;47553;52.428;13.382;2022-07-23T05:50:48;101191.84;;;15.56;92.29
61645;BME280;47553;52.428;13.382;2022-07-23T05:52:49;101209.81;;;15.42;91.74
61645;BME280;47553;52.428;13.382;2022-07-23T05:54:51;101207.63;;;15.35;94.10
61645;BME280;47553;52.428;13.382;2022-07-23T05:56:53;101209.56;;;15.20;96.00
61645;BME280;47553;52.428;13.382;2022-07-23T05:58:55;101201.44;;;15.47;96.30
61645;BME280;47553;52.428;13.382;2022-07-23T06:00:57;101204.53;;;15.66;94.28
61645;BME280;47553;52.428;13.382;2022-07-23T06:02:59;101191.97;;;15.41;93.26
61645;BME280;47553;52.428;13.382;2022-07-23T06:05:00;101179.03;;;15.34;95.16
61645;BME280;47553;52.428;13.382;2022-07-23T06:07:02;101174.22;;;15.51;96.44
61645;BME280;47553;52.428;13.382;2022-07-23T06:09:03;101163.28;;;15.91;92.04
61645;BME280;47553;52.428;13.382;2022-07-23T06:11:06;101170.81;;;15.86;92.07
61645;BME280;47553;52.428;13.382;2022-07-23T06:13:07;101175.59;;;15.57;94.99
61645;BME280;47553;52.428;13.382;2022-07-23T06:15:11;101178.41;;;15.56;96.06
61645;BME280;47553;52.428;13.382;2022-07-23T06:17:12;101174.44;;;15.48;97.06
61645;BME280;47553;52.428;13.382;2022-07-23T06:19:14;101180.00;;;15.58;95.45
61645;BME280;47553;52.428;13.382;2022-07-23T06:21:15;101185.06;;;15.63;94.86
61645;BME280;47553;52.428;13.382;2022-07-23T06:23:37;101181.38;;;15.64;95.00
61645;BME280;47553;52.428;13.382;2022-07-23T06:25:39;101173.56;;;15.48;94.88
61645;BME280;47553;52.428;13.382;2022-07-23T06:27:40;101184.53;;;15.32;96.96
61645;BME280;47553;52.428;13.382;2022-07-23T06:29:42;101168.41;;;15.32;96.67
61645;BME280;47553;52.428;13.382;2022-07-23T06:31:45;101148.94;;;15.54;95.14
61645;BME280;47553;52.428;13.382;2022-07-23T06:33:47;101139.47;;;15.61;95.17
61645;BME280;47553;52.428;13.382;2022-07-23T06:35:48;101152.38;;;15.56;95.62
61645;BME280;47553;52.428;13.382;2022-07-23T06:37:50;101157.34;;;15.49;96.84
61645;BME280;47553;52.428;13.382;2022-07-23T06:39:51;101163.13;;;15.69;96.79
61645;BME280;47553;52.428;13.382;2022-07-23T06:41:53;101139.56;;;15.60;96.81
61645;BME280;47553;52.428;13.382;2022-07-23T06:44:01;101140.31;;;15.74;97.63
61645;BME280;47553;52.428;13.382;2022-07-23T06:46:02;101144.16;;;15.83;96.73
61645;BME280;47553;52.428;13.382;2022-07-23T06:48:08;101149.41;;;16.21;93.46
61645;BME280;47553;52.428;13.382;2022-07-23T06:50:10;101144.03;;;16.08;93.33
61645;BME280;47553;52.428;13.382;2022-07-23T06:52:11;101143.38;;;16.18;94.24
61645;BME280;47553;52.428;13.382;2022-07-23T06:54:13;101145.56;;;16.12;94.24
61645;BME280;47553;52.428;13.382;2022-07-23T06:56:15;101152.88;;;16.34;92.61
61645;BME280;47553;52.428;13.382;2022-07-23T06:58:16;101154.94;;;16.31;92.89
61645;BME280;47553;52.428;13.382;2022-07-23T07:00:18;101161.53;;;16.27;93.65
61645;BME280;47553;52.428;13.382;2022-07-23T07:02:19;101165.19;;;16.26;93.04
61645;BME280;47553;52.428;13.382;2022-07-23T07:04:22;101164.31;;;16.01;93.69
61645;BME280;47553;52.428;13.382;2022-07-23T07:06:24;101168.38;;;16.07;94.70
61645;BME280;47553;52.428;13.382;2022-07-23T07:08:25;101162.41;;;15.91;95.46
61645;BME280;47553;52.428;13.382;2022-07-23T07:10:27;101175.34;;;15.86;94.97
61645;BME280;47553;52.428;13.382;2022-07-23T07:12:29;101191.94;;;15.79;96.86
61645;BME280;47553;52.428;13.382;2022-07-23T07:14:30;101196.91;;;15.73;96.96
61645;BME280;47553;52.428;13.382;2022-07-23T07:16:32;101200.34;;;15.75;98.20
61645;BME280;47553;52.428;13.382;2022-07-23T07:18:33;101205.03;;;15.84;98.61
61645;BME280;47553;52.428;13.382;2022-07-23T07:20:36;101197.72;;;15.86;98.48
61645;BME280;47553;52.428;13.382;2022-07-23T07:22:38;101185.81;;;16.14;97.04
61645;BME280;47553;52.428;13.382;2022-07-23T07:24:39;101190.56;;;16.10;96.16
61645;BME280;47553;52.428;13.382;2022-07-23T07:26:41;101185.59;;;16.04;95.75
61645;BME280;47553;52.428;13.382;2022-07-23T07:28:43;101187.41;;;16.17;95.97
61645;BME280;47553;52.428;13.382;2022-07-23T07:30:45;101193.53;;;16.19;96.13
61645;BME280;47553;52.428;13.382;2022-07-23T07:32:46;101188.94;;;16.08;93.66
61645;BME280;47553;52.428;13.382;2022-07-23T07:34:58;101169.97;;;15.86;97.09
61645;BME280;47553;52.428;13.382;2022-07-23T07:37:00;101176.81;;;16.26;96.47
61645;BME280;47553;52.428;13.382;2022-07-23T07:39:02;101177.72;;;16.38;96.67
61645;BME280;47553;52.428;13.382;2022-07-23T07:41:05;101179.41;;;16.63;92.94
61645;BME280;47553;52.428;13.382;2022-07-23T07:43:07;101164.97;;;16.88;90.33
61645;BME280;47553;52.428;13.382;2022-07-23T07:45:09;101165.22;;;16.85;90.69
61645;BME280;47553;52.428;13.382;2022-07-23T07:47:10;101168.00;;;16.83;90.68
61645;BME280;47553;52.428;13.382;2022-07-23T07:49:12;101171.53;;;16.72;91.53
61645;BME280;47553;52.428;13.382;2022-07-23T07:51:16;101172.66;;;16.81;93.63
61645;BME280;47553;52.428;13.382;2022-07-23T07:53:19;101162.84;;;16.80;91.45
61645;BME280;47553;52.428;13.382;2022-07-23T07:55:21;101151.78;;;17.07;88.99
61645;BME280;47553;52.428;13.382;2022-07-23T07:57:22;101155.69;;;17.14;89.89
61645;BME280;47553;52.428;13.382;2022-07-23T07:59:24;101143.69;;;17.07;90.21
61645;BME280;47553;52.428;13.382;2022-07-23T08:01:25;101149.34;;;17.26;90.10
61645;BME280;47553;52.428;13.382;2022-07-23T08:03:27;101144.69;;;17.39;90.24
61645;BME280;47553;52.428;13.382;2022-07-23T08:05:29;101146.41;;;17.40;90.01
61645;BME280;47553;52.428;13.382;2022-07-23T08:07:31;101148.84;;;17.10;90.75
61645;BME280;47553;52.428;13.382;2022-07-23T08:09:34;101150.56;;;17.56;89.86
61645;BME280;47553;52.428;13.382;2022-07-23T08:11:36;101152.50;;;17.98;87.25
61645;BME280;47553;52.428;13.382;2022-07-23T08:13:37;101149.94;;;18.29;85.76
61645;BME280;47553;52.428;13.382;2022-07-23T08:15:39;101142.88;;;18.49;85.14
61645;BME280;47553;52.428;13.382;2022-07-23T08:17:42;101138.69;;;18.77;87.50
61645;BME280;47553;52.428;13.382;2022-07-23T08:19:44;101143.69;;;19.02;83.11
61645;BME280;47553;52.428;13.382;2022-07-23T08:21:46;101152.28;;;19.07;83.44
61645;BME280;47553;52.428;13.382;2022-07-23T08:23:48;101138.28;;;19.02;80.70
61645;BME280;47553;52.428;13.382;2022-07-23T08:25:51;101135.66;;;18.91;81.14
61645;BME280;47553;52.428;13.382;2022-07-23T08:27:52;101152.06;;;19.20;79.86
61645;BME280;47553;52.428;13.382;2022-07-23T08:29:54;101149.00;;;19.65;77.20
61645;BME280;47553;52.428;13.382;2022-07-23T08:31:56;101146.09;;;19.47;78.75
61645;BME280;47553;52.428;13.382;2022-07-23T08:33:57;101153.66;;;19.53;79.70
61645;BME280;47553;52.428;13.382;2022-07-23T08:36:00;101153.66;;;19.83;78.48
61645;BME280;47553;52.428;13.382;2022-07-23T08:38:04;101152.94;;;19.81;78.97
61645;BME280;47553;52.428;13.382;2022-07-23T08:40:07;101153.13;;;19.59;79.21
61645;BME280;47553;52.428;13.382;2022-07-23T08:42:11;101159.25;;;19.61;77.29
61645;BME280;47553;52.428;13.382;2022-07-23T08:44:15;101162.91;;;19.50;78.86
61645;BME280;47553;52.428;13.382;2022-07-23T08:46:19;101153.69;;;19.62;78.10
61645;BME280;47553;52.428;13.382;2022-07-23T08:48:22;101150.66;;;19.86;78.61
61645;BME280;47553;52.428;13.382;2022-07-23T08:50:25;101144.84;;;20.20;75.53
61645;BME280;47553;52.428;13.382;2022-07-23T08:52:29;101143.63;;;20.43;74.89
61645;BME280;47553;52.428;13.382;2022-07-23T08:54:31;101155.69;;;20.20;75.14
61645;BME280;47553;52.428;13.382;2022-07-23T08:56:33;101164.16;;;20.55;73.77
61645;BME280;47553;52.428;13.382;2022-07-23T08:58:37;101171.00;;;20.79;74.81
61645;BME280;47553;52.428;13.382;2022-07-23T09:00:39;101168.00;;;20.43;71.44
61645;BME280;47553;52.428;13.382;2022-07-23T09:02:42;101169.00;;;20.81;70.77
61645;BME280;47553;52.428;13.382;2022-07-23T09:04:44;101167.84;;;20.45;71.06
61645;BME280;47553;52.428;13.382;2022-07-23T09:06:46;101175.16;;;20.64;70.80
61645;BME280;47553;52.428;13.382;2022-07-23T09:08:47;101162.56;;;20.24;70.93
61645;BME280;47553;52.428;13.382;2022-07-23T09:10:51;101155.88;;;20.67;69.61
61645;BME280;47553;52.428;13.382;2022-07-23T09:12:53;101163.03;;;20.68;70.04
61645;BME280;47553;52.428;13.382;2022-07-23T09:15:04;101165.28;;;20.82;67.47
61645;BME280;47553;52.428;13.382;2022-07-23T09:17:13;101169.50;;;21.33;67.32
61645;BME280;47553;52.428;13.382;2022-07-23T09:19:15;101170.94;;;21.17;65.59
61645;BME280;47553;52.428;13.382;2022-07-23T09:21:20;101163.28;;;21.03;66.64
61645;BME280;47553;52.428;13.382;2022-07-23T09:23:36;101172.13;;;21.05;67.06
61645;BME280;47553;52.428;13.382;2022-07-23T09:25:38;101170.25;;;21.06;68.46
61645;BME280;47553;52.428;13.382;2022-07-23T09:27:54;101181.09;;;20.96;67.75
61645;BME280;47553;52.428;13.382;2022-07-23T09:29:57;101176.28;;;20.71;70.23
61645;BME280;47553;52.428;13.382;2022-07-23T09:32:00;101175.72;;;20.58;70.45
61645;BME280;47553;52.428;13.382;2022-07-23T09:34:07;101179.00;;;20.71;68.48
61645;BME280;47553;52.428;13.382;2022-07-23T09:36:09;101181.00;;;20.59;71.01
61645;BME280;47553;52.428;13.382;2022-07-23T09:38:10;101183.38;;;20.33;68.85
61645;BME280;47553;52.428;13.382;2022-07-23T09:40:13;101174.41;;;20.42;69.57
61645;BME280;47553;52.428;13.382;2022-07-23T09:42:16;101183.28;;;20.64;67.61
61645;BME280;47553;52.428;13.382;2022-07-23T09:44:19;101180.25;;;20.47;68.47
61645;BME280;47553;52.428;13.382;2022-07-23T09:46:29;101180.69;;;20.52;68.91
61645;BME280;47553;52.428;13.382;2022-07-23T09:48:31;101180.97;;;20.88;68.13
61645;BME280;47553;52.428;13.382;2022-07-23T09:50:32;101192.81;;;20.87;68.67
61645;BME280;47553;52.428;13.382;2022-07-23T09:52:35;101190.38;;;21.03;68.15
61645;BME280;47553;52.428;13.382;2022-07-23T09:54:39;101204.88;;;21.41;67.57
61645;BME280;47553;52.428;13.382;2022-07-23T09:56:41;101197.84;;;21.48;66.00
61645;BME280;47553;52.428;13.382;2022-07-23T09:58:44;101202.59;;;21.73;65.77
61645;BME280;47553;52.428;13.382;2022-07-23T10:00:47;101194.13;;;21.86;62.58
61645;BME280;47553;52.428;13.382;2022-07-23T10:02:51;101195.59;;;21.80;63.32
61645;BME280;47553;52.428;13.382;2022-07-23T10:04:53;101198.09;;;21.92;64.56
61645;BME280;47553;52.428;13.382;2022-07-23T10:06:56;101210.44;;;21.76;64.49
61645;BME280;47553;52.428;13.382;2022-07-23T10:08:59;101203.06;;;22.06;63.19
61645;BME280;47553;52.428;13.382;2022-07-23T10:11:03;101205.56;;;22.35;60.81
61645;BME280;47553;52.428;13.382;2022-07-23T10:13:05;101202.97;;;21.88;60.68
61645;BME280;47553;52.428;13.382;2022-07-23T10:15:07;101210.28;;;22.15;62.57
61645;BME280;47553;52.428;13.382;2022-07-23T10:17:09;101210.19;;;22.07;63.22
61645;BME280;47553;52.428;13.382;2022-07-23T10:19:12;101207.31;;;21.71;63.72
61645;BME280;47553;52.428;13.382;2022-07-23T10:21:19;101199.81;;;21.93;62.68
61645;BME280;47553;52.428;13.382;2022-07-23T10:23:27;101195.78;;;21.97;63.60
61645;BME280;47553;52.428;13.382;2022-07-23T10:25:34;101206.00;;;22.12;62.77
61645;BME280;47553;52.428;13.382;2022-07-23T10:27:51;101197.81;;;21.95;61.70
61645;BME280;47553;52.428;13.382;2022-07-23T10:30:00;101198.09;;;22.19;60.92
61645;BME280;47553;52.428;13.382;2022-07-23T10:32:16;101212.28;;;22.58;60.77